createdAt,value
2022-08-30T00:02:02.899Z,23.90
2022-08-30T00:04:32.100Z,23.90
2022-08-30T00:07:02.291Z,23.90
2022-08-30T00:09:30.098Z,24.00
2022-08-30T00:11:57.934Z,23.90
2022-08-30T00:14:27.416Z,23.90
2022-08-30T00:16:55.352Z,23.90
2022-08-30T00:19:23.165Z,23.90
2022-08-30T00:21:52.439Z,23.90
2022-08-30T00:24:20.300Z,23.90
2022-08-30T00:26:48.781Z,23.90
2022-08-30T00:29:16.628Z,23.80
2022-08-30T00:31:44.482Z,23.80
2022-08-30T00:34:12.304Z,23.80
2022-08-30T00:36:40.148Z,23.80
2022-08-30T00:39:09.274Z,23.80
2022-08-30T00:41:37.233Z,23.80
2022-08-30T00:44:05.930Z,23.70
2022-08-30T00:46:33.834Z,23.80
2022-08-30T00:49:06.255Z,23.80
2022-08-30T00:51:34.565Z,23.80
2022-08-30T00:54:03.598Z,23.90
2022-08-30T00:56:34.951Z,23.90
2022-08-30T00:59:05.103Z,23.80
2022-08-30T01:01:34.098Z,23.80
2022-08-30T01:04:03.202Z,23.80
2022-08-30T01:06:32.897Z,23.80
2022-08-30T01:09:02.889Z,23.80
2022-08-30T01:11:35.022Z,23.80
2022-08-30T01:14:04.107Z,23.80
2022-08-30T01:16:33.335Z,23.80
2022-08-30T01:19:03.391Z,23.80
2022-08-30T01:21:37.897Z,23.70
2022-08-30T01:24:09.605Z,23.80
2022-08-30T01:26:37.878Z,23.80
2022-08-30T01:29:08.373Z,23.80
2022-08-30T01:31:36.917Z,23.80
2022-08-30T01:34:07.496Z,23.80
2022-08-30T01:36:37.068Z,23.80
2022-08-30T01:39:07.227Z,23.80
2022-08-30T01:41:36.482Z,23.80
2022-08-30T01:44:07.380Z,23.70
2022-08-30T01:46:38.571Z,23.70
2022-08-30T01:49:10.062Z,23.80
2022-08-30T01:51:39.475Z,23.80
2022-08-30T01:54:09.210Z,23.80
2022-08-30T01:56:37.015Z,23.70
2022-08-30T01:59:04.981Z,23.80
2022-08-30T02:01:35.747Z,23.80
2022-08-30T02:04:04.790Z,23.80
2022-08-30T02:06:32.852Z,23.70
2022-08-30T02:09:00.923Z,23.60
2022-08-30T02:11:30.135Z,23.70
2022-08-30T02:13:58.049Z,23.70
2022-08-30T02:16:26.842Z,23.70
2022-08-30T02:18:56.119Z,23.80
2022-08-30T02:21:24.075Z,23.80
2022-08-30T02:23:52.658Z,23.70
2022-08-30T02:26:20.884Z,23.80
2022-08-30T02:28:50.508Z,23.70
2022-08-30T02:31:19.531Z,23.70
2022-08-30T02:33:50.221Z,23.80
2022-08-30T02:36:18.826Z,23.70
2022-08-30T02:38:47.131Z,23.70
2022-08-30T02:41:15.191Z,23.60
2022-08-30T02:43:43.123Z,23.60
2022-08-30T02:46:12.335Z,23.70
2022-08-30T02:48:40.450Z,23.60
2022-08-30T02:51:11.354Z,23.60
2022-08-30T02:53:39.821Z,23.60
2022-08-30T02:56:08.348Z,23.50
2022-08-30T02:58:36.357Z,23.60
2022-08-30T03:01:04.918Z,23.60
2022-08-30T03:03:34.444Z,23.70
2022-08-30T03:06:03.162Z,23.70
2022-08-30T03:08:31.359Z,23.70
2022-08-30T03:10:59.350Z,23.70
2022-08-30T03:13:27.697Z,23.70
2022-08-30T03:15:55.583Z,23.70
2022-08-30T03:18:24.460Z,23.70
2022-08-30T03:20:54.085Z,23.70
2022-08-30T03:23:24.072Z,23.70
2022-08-30T03:25:53.306Z,23.60
2022-08-30T03:28:21.199Z,23.70
2022-08-30T03:30:48.992Z,23.70
2022-08-30T03:33:18.476Z,23.70
2022-08-30T03:35:47.940Z,23.60
2022-08-30T03:38:17.660Z,23.60
2022-08-30T03:40:45.607Z,23.50
2022-08-30T03:43:14.701Z,23.50
2022-08-30T03:45:43.006Z,23.50
2022-08-30T03:48:10.843Z,23.60
2022-08-30T03:50:38.748Z,23.60
2022-08-30T03:53:06.697Z,23.60
2022-08-30T03:55:36.096Z,23.60
2022-08-30T03:58:03.949Z,23.60
2022-08-30T04:00:31.876Z,23.60
2022-08-30T04:02:59.897Z,23.60
2022-08-30T04:05:28.185Z,23.60
2022-08-30T04:07:56.012Z,23.60
2022-08-30T04:10:39.718Z,23.60
2022-08-30T04:13:09.363Z,23.60
2022-08-30T04:15:37.262Z,23.70
2022-08-30T04:18:05.153Z,23.60
2022-08-30T04:20:34.037Z,23.50
2022-08-30T04:23:02.267Z,23.60
2022-08-30T04:25:30.225Z,23.50
2022-08-30T04:27:58.045Z,23.50
2022-08-30T04:30:27.241Z,23.50
2022-08-30T04:32:58.602Z,23.40
2022-08-30T04:35:27.510Z,23.50
2022-08-30T04:37:55.304Z,23.50
2022-08-30T04:40:23.438Z,23.50
2022-08-30T04:42:54.038Z,23.50
2022-08-30T04:45:23.135Z,23.50
2022-08-30T04:47:52.345Z,23.40
2022-08-30T04:50:22.114Z,23.30
2022-08-30T04:52:50.002Z,23.30
2022-08-30T04:55:20.401Z,23.40
2022-08-30T04:57:49.205Z,23.40
2022-08-30T05:00:17.832Z,23.40
2022-08-30T05:02:45.691Z,23.40
2022-08-30T05:05:32.449Z,23.40
2022-08-30T05:08:00.446Z,23.40
2022-08-30T05:10:28.605Z,23.50
2022-08-30T05:12:56.707Z,23.40
2022-08-30T05:15:24.965Z,23.50
2022-08-30T05:17:52.829Z,23.50
2022-08-30T05:20:22.322Z,23.50
2022-08-30T05:22:53.702Z,23.60
2022-08-30T05:25:23.849Z,23.50
2022-08-30T05:27:52.189Z,23.60
2022-08-30T05:30:21.122Z,23.60
2022-08-30T05:32:48.982Z,23.50
2022-08-30T05:35:20.239Z,23.50
2022-08-30T05:37:52.762Z,23.50
2022-08-30T05:40:21.287Z,23.40
2022-08-30T05:42:49.086Z,23.30
2022-08-30T05:45:16.955Z,23.40
2022-08-30T05:47:44.913Z,23.40
2022-08-30T05:50:12.756Z,23.30
2022-08-30T05:52:43.104Z,23.40
2022-08-30T05:55:13.634Z,23.40
2022-08-30T05:57:42.665Z,23.30
2022-08-30T06:00:14.673Z,23.40
2022-08-30T06:02:43.010Z,23.40
2022-08-30T06:05:14.471Z,23.10
2022-08-30T06:07:43.315Z,22.90
2022-08-30T06:10:13.235Z,22.30
2022-08-30T06:12:42.997Z,22.20
2022-08-30T06:15:11.915Z,22.10
2022-08-30T06:17:39.872Z,21.90
2022-08-30T06:20:09.372Z,22.00
2022-08-30T06:22:38.576Z,21.90
2022-08-30T06:25:07.125Z,22.00
2022-08-30T06:27:36.360Z,22.30
2022-08-30T06:30:05.090Z,22.10
2022-08-30T06:32:32.894Z,22.10
2022-08-30T06:35:00.675Z,21.90
2022-08-30T06:37:30.044Z,21.60
2022-08-30T06:39:58.696Z,21.60
2022-08-30T06:42:31.596Z,22.00
2022-08-30T06:45:01.536Z,22.10
2022-08-30T06:47:30.402Z,21.80
2022-08-30T06:49:59.242Z,21.60
2022-08-30T06:52:27.077Z,21.90
2022-08-30T06:54:58.890Z,22.00
2022-08-30T06:57:27.313Z,21.70
2022-08-30T06:59:57.345Z,21.50
2022-08-30T07:02:27.172Z,21.30
2022-08-30T07:04:55.318Z,21.40
2022-08-30T07:07:23.124Z,21.40
2022-08-30T07:09:51.113Z,21.50
2022-08-30T07:12:18.947Z,21.60
2022-08-30T07:14:46.830Z,21.50
2022-08-30T07:17:34.711Z,21.60
2022-08-30T07:20:05.162Z,21.70
2022-08-30T07:22:34.153Z,21.50
2022-08-30T07:25:02.036Z,21.30
2022-08-30T07:27:30.099Z,21.40
2022-08-30T07:29:58.748Z,21.50
2022-08-30T07:32:26.631Z,21.60
2022-08-30T07:34:54.457Z,21.50
2022-08-30T07:37:23.584Z,21.60
2022-08-30T07:39:51.395Z,21.60
2022-08-30T07:42:19.444Z,21.60
2022-08-30T07:44:47.348Z,21.10
2022-08-30T07:47:16.659Z,21.00
2022-08-30T07:49:44.616Z,21.30
2022-08-30T07:52:12.424Z,21.60
2022-08-30T07:54:42.948Z,22.10
2022-08-30T07:57:11.494Z,22.40
2022-08-30T07:59:39.340Z,22.80
2022-08-30T08:02:07.287Z,23.10
2022-08-30T08:04:35.561Z,23.30
2022-08-30T08:07:03.489Z,23.60
2022-08-30T08:09:31.499Z,23.70
2022-08-30T08:12:01.008Z,24.00
2022-08-30T08:14:28.802Z,23.90
2022-08-30T08:16:56.593Z,24.00
2022-08-30T08:19:24.732Z,24.00
2022-08-30T08:22:09.252Z,24.30
2022-08-30T08:24:42.610Z,24.30
2022-08-30T08:27:11.720Z,24.60
2022-08-30T08:29:39.581Z,24.60
2022-08-30T08:32:07.478Z,24.60
2022-08-30T08:34:37.029Z,24.70
2022-08-30T08:37:04.866Z,25.00
2022-08-30T08:39:32.695Z,24.80
2022-08-30T08:42:11.461Z,24.80
2022-08-30T08:44:54.259Z,24.70
2022-08-30T08:47:29.718Z,24.50
2022-08-30T08:50:00.854Z,24.50
2022-08-30T08:52:53.493Z,24.50
2022-08-30T08:55:24.431Z,24.50
2022-08-30T08:57:53.256Z,24.30
2022-08-30T09:00:22.617Z,24.50
2022-08-30T09:02:57.599Z,24.50
2022-08-30T09:05:28.430Z,24.40
2022-08-30T09:08:05.515Z,24.60
2022-08-30T09:10:50.023Z,24.40
2022-08-30T09:13:18.963Z,24.70
2022-08-30T09:15:53.719Z,24.60
2022-08-30T09:18:41.940Z,24.40
2022-08-30T09:21:14.341Z,24.50
2022-08-30T09:23:50.436Z,24.50
2022-08-30T09:26:32.892Z,24.50
2022-08-30T09:29:00.929Z,24.30
2022-08-30T09:31:32.234Z,24.50
2022-08-30T09:34:03.509Z,24.40
2022-08-30T09:36:36.182Z,24.30
2022-08-30T09:39:06.328Z,24.50
2022-08-30T09:41:40.030Z,24.30
2022-08-30T09:44:11.868Z,24.20
2022-08-30T09:46:47.424Z,24.20
2022-08-30T09:49:34.442Z,24.20
2022-08-30T09:52:16.786Z,24.30
2022-08-30T09:54:54.241Z,24.20
2022-08-30T09:57:33.948Z,24.20
2022-08-30T10:00:06.069Z,24.20
2022-08-30T10:02:49.202Z,24.30
2022-08-30T10:05:25.252Z,24.20
2022-08-30T10:08:02.922Z,24.10
2022-08-30T10:10:37.121Z,24.10
2022-08-30T10:13:22.551Z,24.10
2022-08-30T10:15:55.716Z,24.20
2022-08-30T10:18:32.575Z,24.30
2022-08-30T10:21:07.340Z,24.30
2022-08-30T10:23:38.357Z,24.40
2022-08-30T10:26:13.400Z,24.50
2022-08-30T10:28:46.857Z,24.50
2022-08-30T10:31:25.540Z,24.40
2022-08-30T10:33:59.692Z,24.30
2022-08-30T10:36:32.830Z,24.30
2022-08-30T10:39:03.522Z,24.30
2022-08-30T10:41:37.358Z,24.50
2022-08-30T10:44:12.056Z,24.50
2022-08-30T10:46:51.410Z,24.50
2022-08-30T10:49:23.632Z,24.60
2022-08-30T10:51:59.679Z,24.60
2022-08-30T10:54:34.940Z,24.60
2022-08-30T10:57:02.827Z,24.70
2022-08-30T10:59:30.863Z,24.70
2022-08-30T11:02:24.018Z,24.60
2022-08-30T11:05:31.104Z,24.60
2022-08-30T11:08:22.176Z,24.60
2022-08-30T11:11:03.400Z,24.60
2022-08-30T11:13:33.559Z,24.70
2022-08-30T11:16:05.337Z,24.80
2022-08-30T11:18:41.515Z,24.70
2022-08-30T11:21:23.449Z,24.70
2022-08-30T11:24:11.084Z,24.70
2022-08-30T11:27:01.547Z,24.70
2022-08-30T11:29:33.673Z,24.70
2022-08-30T11:32:27.786Z,24.70
2022-08-30T11:34:58.221Z,24.70
2022-08-30T11:37:39.549Z,24.60
2022-08-30T11:40:13.276Z,24.60
2022-08-30T11:42:46.484Z,24.60
2022-08-30T11:45:52.151Z,24.50
2022-08-30T11:48:46.961Z,24.50
2022-08-30T11:51:50.893Z,24.60
2022-08-30T11:54:44.441Z,24.60
2022-08-30T11:57:26.146Z,24.60
2022-08-30T12:00:05.278Z,24.60
2022-08-30T12:02:53.320Z,24.60
2022-08-30T12:05:51.654Z,24.60
2022-08-30T12:08:44.903Z,24.60
2022-08-30T12:12:03.729Z,24.50
2022-08-30T12:14:54.774Z,24.50
2022-08-30T12:17:44.572Z,24.40
2022-08-30T12:20:21.648Z,24.30
2022-08-30T12:22:50.518Z,24.30
2022-08-30T12:25:25.199Z,24.30
2022-08-30T12:28:08.764Z,24.30
2022-08-30T12:30:39.557Z,24.30
2022-08-30T12:33:11.925Z,24.30
2022-08-30T12:35:41.719Z,24.30
2022-08-30T12:38:18.235Z,24.30
2022-08-30T12:40:54.121Z,24.20
2022-08-30T12:43:40.196Z,24.40
2022-08-30T12:46:15.892Z,24.30
2022-08-30T12:48:45.315Z,24.30
2022-08-30T12:51:36.102Z,24.30
2022-08-30T12:54:07.765Z,24.30
2022-08-30T12:57:18.978Z,24.30
2022-08-30T12:59:58.498Z,24.30
2022-08-30T13:02:42.878Z,24.30
2022-08-30T13:05:32.069Z,24.30
2022-08-30T13:08:11.912Z,24.30
2022-08-30T13:10:51.393Z,24.40
2022-08-30T13:13:29.927Z,24.40
2022-08-30T13:16:07.252Z,24.40
2022-08-30T13:18:36.687Z,24.40
2022-08-30T13:21:19.997Z,24.50
2022-08-30T13:23:48.016Z,24.50
2022-08-30T13:26:21.096Z,24.70
2022-08-30T13:28:53.601Z,24.70
2022-08-30T13:31:22.461Z,24.60
2022-08-30T13:33:52.865Z,24.50
2022-08-30T13:36:21.444Z,24.50
2022-08-30T13:38:51.041Z,24.50
2022-08-30T13:41:20.193Z,24.50
2022-08-30T13:46:37.033Z,24.50
2022-08-30T13:49:42.968Z,24.60
2022-08-30T13:52:19.031Z,24.60
2022-08-30T13:54:47.283Z,24.60
2022-08-30T13:57:53.583Z,24.50
2022-08-30T14:00:08.724Z,24.60
2022-08-30T14:02:46.390Z,24.60
2022-08-30T14:05:37.597Z,24.60
2022-08-30T14:08:06.446Z,24.50
2022-08-30T14:10:46.582Z,24.50
2022-08-30T14:13:15.372Z,24.50
2022-08-30T14:15:43.447Z,24.40
2022-08-30T14:18:17.765Z,24.50
2022-08-30T14:20:47.686Z,24.50
2022-08-30T14:23:15.757Z,24.40
2022-08-30T14:25:43.605Z,24.40
2022-08-30T14:28:11.504Z,24.50
2022-08-30T14:30:40.349Z,24.50
2022-08-30T14:33:10.658Z,24.50
2022-08-30T14:35:41.319Z,24.50
2022-08-30T14:38:11.145Z,24.50
2022-08-30T14:40:39.893Z,24.50
2022-08-30T14:43:07.773Z,24.50
2022-08-30T14:45:35.608Z,24.50
2022-08-30T14:48:11.769Z,24.50
2022-08-30T14:50:42.606Z,24.50
2022-08-30T14:53:11.717Z,24.50
2022-08-30T14:55:39.582Z,24.50
2022-08-30T14:58:10.633Z,24.50
2022-08-30T15:00:38.980Z,24.50
2022-08-30T15:03:08.715Z,24.50
2022-08-30T15:05:36.581Z,24.50
2022-08-30T15:08:05.130Z,24.50
2022-08-30T15:10:37.362Z,24.50
2022-08-30T15:13:06.307Z,24.50
2022-08-30T15:15:34.182Z,24.50
2022-08-30T15:18:02.146Z,24.40
2022-08-30T15:20:31.297Z,24.40
2022-08-30T15:22:59.085Z,24.50
2022-08-30T15:25:27.036Z,24.50
2022-08-30T15:27:56.204Z,24.40
2022-08-30T15:30:24.281Z,24.30
2022-08-30T15:32:52.078Z,24.40
2022-08-30T15:35:20.096Z,24.30
2022-08-30T15:37:50.736Z,24.30
2022-08-30T15:40:19.626Z,24.30
2022-08-30T15:42:47.534Z,24.30
2022-08-30T15:45:17.879Z,24.30
2022-08-30T15:47:45.911Z,24.40
2022-08-30T15:50:14.393Z,24.40
2022-08-30T15:52:42.219Z,24.40
2022-08-30T15:55:10.687Z,24.30
2022-08-30T15:57:39.380Z,24.40
2022-08-30T16:00:09.669Z,24.40
2022-08-30T16:02:39.137Z,24.30
2022-08-30T16:05:07.913Z,24.30
2022-08-30T16:07:40.458Z,24.20
2022-08-30T16:10:10.392Z,24.30
2022-08-30T16:12:38.228Z,24.30
2022-08-30T16:15:06.798Z,24.30
2022-08-30T16:17:34.767Z,24.20
2022-08-30T16:20:07.114Z,24.20
2022-08-30T16:22:35.496Z,24.20
2022-08-30T16:25:04.727Z,24.30
2022-08-30T16:27:34.939Z,24.30
2022-08-30T16:30:02.732Z,24.30
2022-08-30T16:32:30.978Z,24.30
2022-08-30T16:34:59.519Z,24.20
2022-08-30T16:37:28.779Z,24.20
2022-08-30T16:39:56.602Z,24.10
2022-08-30T16:42:24.700Z,24.20
2022-08-30T16:44:52.557Z,24.20
2022-08-30T16:47:20.451Z,24.20
2022-08-30T16:49:48.354Z,24.20
2022-08-30T16:52:19.490Z,24.20
2022-08-30T16:54:51.979Z,24.20
2022-08-30T16:57:20.278Z,24.10
2022-08-30T16:59:49.549Z,24.00
2022-08-30T17:02:21.697Z,24.00
2022-08-30T17:04:52.942Z,24.00
2022-08-30T17:07:21.581Z,24.00
2022-08-30T17:09:51.868Z,24.00
2022-08-30T17:12:21.020Z,23.90
2022-08-30T17:14:48.798Z,23.80
2022-08-30T17:17:16.684Z,23.90
2022-08-30T17:19:49.808Z,23.80
2022-08-30T17:22:17.694Z,23.80
2022-08-30T17:24:46.293Z,23.80
2022-08-30T17:27:16.008Z,23.70
2022-08-30T17:29:44.085Z,23.70
2022-08-30T17:32:12.143Z,23.70
2022-08-30T17:34:40.314Z,23.60
2022-08-30T17:37:08.273Z,23.50
2022-08-30T17:39:37.190Z,23.60
2022-08-30T17:42:05.738Z,23.50
2022-08-30T17:44:37.757Z,23.50
2022-08-30T17:47:10.082Z,23.60
2022-08-30T17:49:38.249Z,23.60
2022-08-30T17:52:06.593Z,23.70
2022-08-30T17:54:35.642Z,23.60
2022-08-30T17:57:10.810Z,23.50
2022-08-30T17:59:40.804Z,23.60
2022-08-30T18:02:11.018Z,23.50
2022-08-30T18:04:41.662Z,23.40
2022-08-30T18:07:12.079Z,23.30
2022-08-30T18:09:40.698Z,23.30
2022-08-30T18:12:09.169Z,23.30
2022-08-30T18:14:39.336Z,23.30
2022-08-30T18:17:26.359Z,23.30
2022-08-30T18:19:54.169Z,23.40
2022-08-30T18:22:22.906Z,23.40
2022-08-30T18:24:52.565Z,23.40
2022-08-30T18:27:20.451Z,23.40
2022-08-30T18:29:48.313Z,23.60
2022-08-30T18:32:16.317Z,23.60
2022-08-30T18:34:45.602Z,23.60
2022-08-30T18:37:14.075Z,23.60
2022-08-30T18:39:44.794Z,23.60
2022-08-30T18:42:12.592Z,23.60
2022-08-30T18:44:43.559Z,23.60
2022-08-30T18:47:12.013Z,23.60
2022-08-30T18:49:40.427Z,23.80
2022-08-30T18:52:11.000Z,23.90
2022-08-30T18:54:41.057Z,24.00
2022-08-30T18:57:09.866Z,24.20
2022-08-30T18:59:38.214Z,24.20
2022-08-30T19:02:07.380Z,24.20
2022-08-30T19:04:37.827Z,24.20
2022-08-30T19:07:07.896Z,24.20
2022-08-30T19:09:38.114Z,24.20
2022-08-30T19:12:09.833Z,24.20
2022-08-30T19:14:39.649Z,24.20
2022-08-30T19:17:08.120Z,24.20
2022-08-30T19:19:46.142Z,24.10
2022-08-30T19:22:20.848Z,24.20
2022-08-30T19:24:50.857Z,24.10
2022-08-30T19:27:21.538Z,24.20
2022-08-30T19:30:05.400Z,24.20
2022-08-30T19:32:33.990Z,24.10
2022-08-30T19:35:01.971Z,24.10
2022-08-30T19:37:30.529Z,24.10
2022-08-30T19:40:03.135Z,24.10
2022-08-30T19:42:31.113Z,24.20
2022-08-30T19:44:58.976Z,24.20
2022-08-30T19:47:26.950Z,24.20
2022-08-30T19:49:54.775Z,24.20
2022-08-30T19:52:22.848Z,24.20
2022-08-30T19:54:50.668Z,24.20
2022-08-30T19:57:19.850Z,24.20
2022-08-30T19:59:47.620Z,24.10
2022-08-30T20:02:15.565Z,24.10
2022-08-30T20:04:43.451Z,24.10
2022-08-30T20:07:11.575Z,24.10
2022-08-30T20:09:39.374Z,24.10
2022-08-30T20:12:07.372Z,24.10
2022-08-30T20:14:36.573Z,24.00
2022-08-30T20:17:04.498Z,24.00
2022-08-30T20:19:33.505Z,23.90
2022-08-30T20:22:07.120Z,23.80
2022-08-30T20:27:09.529Z,23.60
2022-08-30T20:29:40.109Z,23.60
2022-08-30T20:32:08.016Z,23.60
2022-08-30T20:34:36.242Z,23.70
2022-08-30T20:37:04.313Z,23.60
2022-08-30T20:39:32.100Z,23.60
2022-08-30T20:41:59.942Z,23.70
2022-08-30T20:44:27.792Z,23.70
2022-08-30T20:46:57.425Z,23.60
2022-08-30T20:49:25.214Z,23.60
2022-08-30T20:51:54.470Z,23.60
2022-08-30T20:54:22.608Z,23.60
2022-08-30T20:56:51.343Z,23.60
2022-08-30T20:59:19.298Z,23.50
2022-08-30T21:01:49.065Z,23.50
2022-08-30T21:04:19.431Z,23.50
2022-08-30T21:06:47.209Z,23.60
2022-08-30T21:09:16.022Z,23.50
2022-08-30T21:11:45.205Z,23.50
2022-08-30T21:14:14.252Z,23.50
2022-08-30T21:16:42.511Z,23.40
2022-08-30T21:19:10.365Z,23.40
2022-08-30T21:21:39.661Z,23.40
2022-08-30T21:24:09.981Z,23.30
2022-08-30T21:26:38.351Z,23.30
2022-08-30T21:29:06.642Z,23.30
2022-08-30T21:31:37.564Z,23.40
2022-08-30T21:34:06.392Z,23.20
2022-08-30T21:36:45.412Z,23.30
2022-08-30T21:39:17.102Z,23.40
2022-08-30T21:41:45.864Z,23.40
2022-08-30T21:44:15.916Z,23.40
2022-08-30T21:46:45.189Z,23.40
2022-08-30T21:49:15.700Z,23.40
2022-08-30T21:51:45.468Z,23.40
2022-08-30T21:54:16.746Z,23.40
2022-08-30T21:56:47.320Z,23.30
2022-08-30T21:59:15.422Z,23.40
2022-08-30T22:01:44.020Z,23.20
2022-08-30T22:04:13.226Z,23.20
2022-08-30T22:06:47.957Z,23.20
2022-08-30T22:09:18.493Z,23.10
2022-08-30T22:11:47.439Z,23.10
2022-08-30T22:14:16.648Z,23.10
2022-08-30T22:16:44.708Z,23.10
2022-08-30T22:19:12.858Z,23.30
2022-08-30T22:21:42.248Z,23.10
2022-08-30T22:24:10.666Z,23.10
2022-08-30T22:26:39.896Z,23.10
2022-08-30T22:29:09.124Z,23.10
2022-08-30T22:31:37.823Z,23.00
2022-08-30T22:34:10.903Z,23.10
2022-08-30T22:36:39.724Z,23.10
2022-08-30T22:39:09.633Z,23.10
2022-08-30T22:41:39.434Z,23.10
2022-08-30T22:44:07.424Z,23.00
2022-08-30T22:46:36.318Z,23.00
2022-08-30T22:49:05.258Z,23.00
2022-08-30T22:51:33.674Z,23.00
2022-08-30T22:54:01.761Z,23.10
2022-08-30T22:56:30.704Z,23.00
2022-08-30T22:58:59.816Z,23.00
2022-08-30T23:01:30.710Z,22.90
2022-08-30T23:04:00.911Z,23.00
2022-08-30T23:06:29.161Z,22.90
2022-08-30T23:08:57.526Z,22.90
2022-08-30T23:11:25.681Z,22.90
2022-08-30T23:13:54.222Z,23.10
2022-08-30T23:16:23.679Z,23.00
2022-08-30T23:18:51.749Z,22.90
2022-08-30T23:21:21.971Z,23.00
2022-08-30T23:24:08.272Z,23.00
2022-08-30T23:26:53.737Z,23.00
2022-08-30T23:29:39.344Z,23.00
2022-08-30T23:32:26.240Z,22.90
2022-08-30T23:35:11.669Z,22.90
2022-08-30T23:37:57.194Z,22.90
2022-08-30T23:40:42.738Z,22.90
2022-08-30T23:43:29.014Z,22.90
2022-08-30T23:46:16.969Z,22.90
2022-08-30T23:49:06.571Z,22.80
2022-08-30T23:51:52.174Z,22.90
2022-08-30T23:54:37.908Z,22.90
2022-08-30T23:57:23.946Z,22.90
